sensor_id;sensor_type;location;lat;lon;timestamp;P1;durP1;ratioP1;P2;durP2;ratioP2
82797;SDS011;72540;62.834;27.606;2024-02-26T00:01:36;7.85;;;3.40;;
82797;SDS011;72540;62.834;27.606;2024-02-26T00:04:02;9.20;;;3.58;;
82797;SDS011;72540;62.834;27.606;2024-02-26T00:06:28;8.90;;;3.13;;
82797;SDS011;72540;62.834;27.606;2024-02-26T00:08:55;8.35;;;2.95;;
82797;SDS011;72540;62.834;27.606;2024-02-26T00:11:20;9.60;;;3.78;;
82797;SDS011;72540;62.834;27.606;2024-02-26T00:13:46;9.02;;;3.03;;
82797;SDS011;72540;62.834;27.606;2024-02-26T00:16:12;8.45;;;3.42;;
82797;SDS011;72540;62.834;27.606;2024-02-26T00:18:38;9.85;;;3.38;;
82797;SDS011;72540;62.834;27.606;2024-02-26T00:21:03;9.52;;;3.80;;
82797;SDS011;72540;62.834;27.606;2024-02-26T00:23:29;8.43;;;3.17;;
82797;SDS011;72540;62.834;27.606;2024-02-26T00:25:55;11.00;;;3.92;;
82797;SDS011;72540;62.834;27.606;2024-02-26T00:28:21;9.05;;;3.03;;
82797;SDS011;72540;62.834;27.606;2024-02-26T00:30:47;8.02;;;3.03;;
82797;SDS011;72540;62.834;27.606;2024-02-26T00:33:13;9.00;;;3.25;;
82797;SDS011;72540;62.834;27.606;2024-02-26T00:35:42;9.88;;;3.85;;
82797;SDS011;72540;62.834;27.606;2024-02-26T00:38:07;9.07;;;3.47;;
82797;SDS011;72540;62.834;27.606;2024-02-26T00:40:33;9.18;;;3.90;;
82797;SDS011;72540;62.834;27.606;2024-02-26T00:42:59;7.88;;;3.45;;
82797;SDS011;72540;62.834;27.606;2024-02-26T00:45:25;9.00;;;3.45;;
82797;SDS011;72540;62.834;27.606;2024-02-26T00:47:50;6.80;;;3.22;;
82797;SDS011;72540;62.834;27.606;2024-02-26T00:50:16;8.80;;;3.15;;
82797;SDS011;72540;62.834;27.606;2024-02-26T00:52:42;8.00;;;3.22;;
82797;SDS011;72540;62.834;27.606;2024-02-26T00:55:08;9.77;;;3.65;;
82797;SDS011;72540;62.834;27.606;2024-02-26T00:57:34;7.63;;;3.17;;
82797;SDS011;72540;62.834;27.606;2024-02-26T00:59:59;7.53;;;3.03;;
82797;SDS011;72540;62.834;27.606;2024-02-26T01:02:26;7.10;;;3.28;;
82797;SDS011;72540;62.834;27.606;2024-02-26T01:04:52;9.55;;;3.30;;
82797;SDS011;72540;62.834;27.606;2024-02-26T01:07:17;10.05;;;3.58;;
82797;SDS011;72540;62.834;27.606;2024-02-26T01:09:44;9.85;;;3.10;;
82797;SDS011;72540;62.834;27.606;2024-02-26T01:12:09;6.82;;;3.22;;
82797;SDS011;72540;62.834;27.606;2024-02-26T01:14:35;8.05;;;3.40;;
82797;SDS011;72540;62.834;27.606;2024-02-26T01:17:01;7.18;;;3.28;;
82797;SDS011;72540;62.834;27.606;2024-02-26T01:19:27;9.77;;;3.63;;
82797;SDS011;72540;62.834;27.606;2024-02-26T01:21:53;7.65;;;2.75;;
82797;SDS011;72540;62.834;27.606;2024-02-26T01:24:18;8.50;;;3.30;;
82797;SDS011;72540;62.834;27.606;2024-02-26T01:26:44;8.40;;;4.15;;
82797;SDS011;72540;62.834;27.606;2024-02-26T01:29:10;9.65;;;3.58;;
82797;SDS011;72540;62.834;27.606;2024-02-26T01:31:35;12.48;;;3.40;;
82797;SDS011;72540;62.834;27.606;2024-02-26T01:34:01;8.23;;;3.42;;
82797;SDS011;72540;62.834;27.606;2024-02-26T01:36:27;7.82;;;3.53;;
82797;SDS011;72540;62.834;27.606;2024-02-26T01:38:53;8.07;;;3.13;;
82797;SDS011;72540;62.834;27.606;2024-02-26T01:41:18;9.13;;;3.78;;
82797;SDS011;72540;62.834;27.606;2024-02-26T01:43:44;9.38;;;3.47;;
82797;SDS011;72540;62.834;27.606;2024-02-26T01:46:11;7.97;;;3.13;;
82797;SDS011;72540;62.834;27.606;2024-02-26T01:48:39;7.60;;;3.40;;
82797;SDS011;72540;62.834;27.606;2024-02-26T01:51:06;8.90;;;3.17;;
82797;SDS011;72540;62.834;27.606;2024-02-26T01:53:31;9.10;;;3.70;;
82797;SDS011;72540;62.834;27.606;2024-02-26T01:55:57;8.15;;;2.83;;
82797;SDS011;72540;62.834;27.606;2024-02-26T01:58:23;7.75;;;3.22;;
82797;SDS011;72540;62.834;27.606;2024-02-26T02:00:49;9.45;;;3.60;;
82797;SDS011;72540;62.834;27.606;2024-02-26T02:03:15;9.32;;;3.42;;
82797;SDS011;72540;62.834;27.606;2024-02-26T02:05:41;7.10;;;3.25;;
82797;SDS011;72540;62.834;27.606;2024-02-26T02:08:10;8.35;;;3.08;;
82797;SDS011;72540;62.834;27.606;2024-02-26T02:10:37;7.68;;;3.33;;
82797;SDS011;72540;62.834;27.606;2024-02-26T02:13:03;9.95;;;3.45;;
82797;SDS011;72540;62.834;27.606;2024-02-26T02:15:29;9.00;;;3.03;;
82797;SDS011;72540;62.834;27.606;2024-02-26T02:17:55;9.82;;;3.28;;
82797;SDS011;72540;62.834;27.606;2024-02-26T02:20:31;8.63;;;2.67;;
82797;SDS011;72540;62.834;27.606;2024-02-26T02:22:59;9.30;;;3.20;;
82797;SDS011;72540;62.834;27.606;2024-02-26T02:25:25;7.90;;;3.03;;
82797;SDS011;72540;62.834;27.606;2024-02-26T02:27:52;11.00;;;3.03;;
82797;SDS011;72540;62.834;27.606;2024-02-26T02:30:18;7.22;;;2.72;;
82797;SDS011;72540;62.834;27.606;2024-02-26T02:32:46;9.48;;;3.45;;
82797;SDS011;72540;62.834;27.606;2024-02-26T02:35:11;7.72;;;2.80;;
82797;SDS011;72540;62.834;27.606;2024-02-26T02:37:37;7.40;;;3.28;;
82797;SDS011;72540;62.834;27.606;2024-02-26T02:40:03;9.25;;;3.03;;
82797;SDS011;72540;62.834;27.606;2024-02-26T02:42:30;8.20;;;2.95;;
82797;SDS011;72540;62.834;27.606;2024-02-26T02:44:56;6.93;;;2.90;;
82797;SDS011;72540;62.834;27.606;2024-02-26T02:47:22;8.60;;;3.10;;
82797;SDS011;72540;62.834;27.606;2024-02-26T02:49:47;7.32;;;3.30;;
82797;SDS011;72540;62.834;27.606;2024-02-26T02:52:13;7.65;;;3.30;;
82797;SDS011;72540;62.834;27.606;2024-02-26T02:54:39;9.55;;;3.22;;
82797;SDS011;72540;62.834;27.606;2024-02-26T02:57:07;7.32;;;2.85;;
82797;SDS011;72540;62.834;27.606;2024-02-26T02:59:36;9.35;;;3.28;;
82797;SDS011;72540;62.834;27.606;2024-02-26T03:02:02;9.07;;;3.83;;
82797;SDS011;72540;62.834;27.606;2024-02-26T03:04:28;10.15;;;3.63;;
82797;SDS011;72540;62.834;27.606;2024-02-26T03:06:54;9.20;;;3.45;;
82797;SDS011;72540;62.834;27.606;2024-02-26T03:09:20;8.50;;;3.50;;
82797;SDS011;72540;62.834;27.606;2024-02-26T03:11:46;10.13;;;3.40;;
82797;SDS011;72540;62.834;27.606;2024-02-26T03:14:11;9.13;;;3.72;;
82797;SDS011;72540;62.834;27.606;2024-02-26T03:16:37;7.65;;;3.08;;
82797;SDS011;72540;62.834;27.606;2024-02-26T03:19:03;8.75;;;3.33;;
82797;SDS011;72540;62.834;27.606;2024-02-26T03:21:29;8.23;;;3.53;;
82797;SDS011;72540;62.834;27.606;2024-02-26T03:23:54;9.05;;;3.67;;
82797;SDS011;72540;62.834;27.606;2024-02-26T03:26:20;9.52;;;3.70;;
82797;SDS011;72540;62.834;27.606;2024-02-26T03:28:46;11.82;;;3.95;;
82797;SDS011;72540;62.834;27.606;2024-02-26T03:31:12;9.30;;;3.78;;
82797;SDS011;72540;62.834;27.606;2024-02-26T03:33:38;9.82;;;3.65;;
82797;SDS011;72540;62.834;27.606;2024-02-26T03:36:04;10.05;;;3.13;;
82797;SDS011;72540;62.834;27.606;2024-02-26T03:38:32;9.88;;;4.07;;
82797;SDS011;72540;62.834;27.606;2024-02-26T03:40:58;10.60;;;4.03;;
82797;SDS011;72540;62.834;27.606;2024-02-26T03:43:24;8.18;;;3.58;;
82797;SDS011;72540;62.834;27.606;2024-02-26T03:45:50;8.57;;;3.20;;
82797;SDS011;72540;62.834;27.606;2024-02-26T03:48:16;9.90;;;4.40;;
82797;SDS011;72540;62.834;27.606;2024-02-26T03:50:41;9.05;;;3.58;;
82797;SDS011;72540;62.834;27.606;2024-02-26T03:53:07;9.80;;;3.47;;
82797;SDS011;72540;62.834;27.606;2024-02-26T03:55:34;9.55;;;3.75;;
82797;SDS011;72540;62.834;27.606;2024-02-26T03:58:00;9.25;;;3.33;;
82797;SDS011;72540;62.834;27.606;2024-02-26T04:00:26;9.32;;;3.67;;
82797;SDS011;72540;62.834;27.606;2024-02-26T04:02:54;10.82;;;3.78;;
82797;SDS011;72540;62.834;27.606;2024-02-26T04:05:19;8.68;;;3.35;;
82797;SDS011;72540;62.834;27.606;2024-02-26T04:07:45;8.23;;;3.92;;
82797;SDS011;72540;62.834;27.606;2024-02-26T04:10:11;8.65;;;3.20;;
82797;SDS011;72540;62.834;27.606;2024-02-26T04:12:40;10.52;;;3.40;;
82797;SDS011;72540;62.834;27.606;2024-02-26T04:15:07;9.63;;;4.03;;
82797;SDS011;72540;62.834;27.606;2024-02-26T04:17:34;9.00;;;3.80;;
82797;SDS011;72540;62.834;27.606;2024-02-26T04:20:01;8.07;;;3.65;;
82797;SDS011;72540;62.834;27.606;2024-02-26T04:22:27;9.20;;;3.58;;
82797;SDS011;72540;62.834;27.606;2024-02-26T04:24:52;8.77;;;3.80;;
82797;SDS011;72540;62.834;27.606;2024-02-26T04:27:18;11.77;;;3.50;;
82797;SDS011;72540;62.834;27.606;2024-02-26T04:29:43;11.60;;;3.67;;
82797;SDS011;72540;62.834;27.606;2024-02-26T04:32:09;9.73;;;3.78;;
82797;SDS011;72540;62.834;27.606;2024-02-26T04:34:35;12.25;;;3.60;;
82797;SDS011;72540;62.834;27.606;2024-02-26T04:37:00;9.00;;;3.35;;
82797;SDS011;72540;62.834;27.606;2024-02-26T04:39:26;10.05;;;4.35;;
82797;SDS011;72540;62.834;27.606;2024-02-26T04:41:52;9.63;;;3.40;;
82797;SDS011;72540;62.834;27.606;2024-02-26T04:44:17;9.35;;;3.95;;
82797;SDS011;72540;62.834;27.606;2024-02-26T04:46:43;9.38;;;4.05;;
82797;SDS011;72540;62.834;27.606;2024-02-26T04:49:09;9.57;;;3.90;;
82797;SDS011;72540;62.834;27.606;2024-02-26T04:51:35;9.27;;;4.07;;
82797;SDS011;72540;62.834;27.606;2024-02-26T04:54:00;12.93;;;4.05;;
82797;SDS011;72540;62.834;27.606;2024-02-26T04:56:26;9.32;;;3.92;;
82797;SDS011;72540;62.834;27.606;2024-02-26T04:58:51;7.70;;;3.50;;
82797;SDS011;72540;62.834;27.606;2024-02-26T05:01:17;9.63;;;3.55;;
82797;SDS011;72540;62.834;27.606;2024-02-26T05:03:43;11.35;;;3.83;;
82797;SDS011;72540;62.834;27.606;2024-02-26T05:06:09;9.23;;;3.80;;
82797;SDS011;72540;62.834;27.606;2024-02-26T05:08:35;10.55;;;3.10;;
82797;SDS011;72540;62.834;27.606;2024-02-26T05:11:04;7.43;;;2.95;;
82797;SDS011;72540;62.834;27.606;2024-02-26T05:13:30;9.45;;;3.50;;
82797;SDS011;72540;62.834;27.606;2024-02-26T05:15:55;10.82;;;3.75;;
82797;SDS011;72540;62.834;27.606;2024-02-26T05:18:24;7.70;;;3.35;;
82797;SDS011;72540;62.834;27.606;2024-02-26T05:20:50;8.23;;;3.35;;
82797;SDS011;72540;62.834;27.606;2024-02-26T05:23:15;8.82;;;3.15;;
82797;SDS011;72540;62.834;27.606;2024-02-26T05:25:41;9.75;;;3.53;;
82797;SDS011;72540;62.834;27.606;2024-02-26T05:28:07;11.45;;;3.35;;
82797;SDS011;72540;62.834;27.606;2024-02-26T05:30:32;10.40;;;3.10;;
82797;SDS011;72540;62.834;27.606;2024-02-26T05:32:58;10.50;;;2.83;;
82797;SDS011;72540;62.834;27.606;2024-02-26T05:35:24;12.52;;;4.05;;
82797;SDS011;72540;62.834;27.606;2024-02-26T05:37:51;8.23;;;3.20;;
82797;SDS011;72540;62.834;27.606;2024-02-26T05:40:16;12.13;;;3.60;;
82797;SDS011;72540;62.834;27.606;2024-02-26T05:42:42;9.82;;;3.80;;
82797;SDS011;72540;62.834;27.606;2024-02-26T05:45:10;10.90;;;4.10;;
82797;SDS011;72540;62.834;27.606;2024-02-26T05:47:35;7.85;;;3.22;;
82797;SDS011;72540;62.834;27.606;2024-02-26T05:50:07;9.98;;;3.08;;
82797;SDS011;72540;62.834;27.606;2024-02-26T05:52:36;8.43;;;3.38;;
82797;SDS011;72540;62.834;27.606;2024-02-26T05:55:03;9.52;;;3.05;;
82797;SDS011;72540;62.834;27.606;2024-02-26T05:57:30;7.97;;;3.00;;
82797;SDS011;72540;62.834;27.606;2024-02-26T05:59:56;7.00;;;2.78;;
82797;SDS011;72540;62.834;27.606;2024-02-26T06:02:25;9.73;;;3.65;;
82797;SDS011;72540;62.834;27.606;2024-02-26T06:04:51;12.30;;;4.07;;
82797;SDS011;72540;62.834;27.606;2024-02-26T06:07:17;12.07;;;3.35;;
82797;SDS011;72540;62.834;27.606;2024-02-26T06:09:42;8.55;;;3.53;;
82797;SDS011;72540;62.834;27.606;2024-02-26T06:12:08;8.30;;;3.25;;
82797;SDS011;72540;62.834;27.606;2024-02-26T06:14:34;9.57;;;3.45;;
82797;SDS011;72540;62.834;27.606;2024-02-26T06:16:59;8.82;;;3.80;;
82797;SDS011;72540;62.834;27.606;2024-02-26T06:19:25;7.93;;;2.90;;
82797;SDS011;72540;62.834;27.606;2024-02-26T06:21:51;7.68;;;3.47;;
82797;SDS011;72540;62.834;27.606;2024-02-26T06:24:16;9.07;;;3.20;;
82797;SDS011;72540;62.834;27.606;2024-02-26T06:26:42;9.50;;;3.17;;
82797;SDS011;72540;62.834;27.606;2024-02-26T06:29:08;9.82;;;2.67;;
82797;SDS011;72540;62.834;27.606;2024-02-26T06:31:33;9.10;;;3.63;;
82797;SDS011;72540;62.834;27.606;2024-02-26T06:33:59;7.15;;;3.03;;
82797;SDS011;72540;62.834;27.606;2024-02-26T06:36:24;7.53;;;3.08;;
82797;SDS011;72540;62.834;27.606;2024-02-26T06:38:51;7.50;;;3.15;;
82797;SDS011;72540;62.834;27.606;2024-02-26T06:41:19;8.48;;;3.00;;
82797;SDS011;72540;62.834;27.606;2024-02-26T06:43:45;7.65;;;2.75;;
82797;SDS011;72540;62.834;27.606;2024-02-26T06:46:10;9.95;;;3.30;;
82797;SDS011;72540;62.834;27.606;2024-02-26T06:48:36;7.35;;;3.20;;
82797;SDS011;72540;62.834;27.606;2024-02-26T06:51:02;7.97;;;2.70;;
82797;SDS011;72540;62.834;27.606;2024-02-26T06:53:28;8.52;;;2.92;;
82797;SDS011;72540;62.834;27.606;2024-02-26T06:55:54;8.43;;;3.03;;
82797;SDS011;72540;62.834;27.606;2024-02-26T06:58:20;9.48;;;2.92;;
82797;SDS011;72540;62.834;27.606;2024-02-26T07:00:45;6.55;;;2.38;;
82797;SDS011;72540;62.834;27.606;2024-02-26T07:03:11;6.65;;;2.35;;
82797;SDS011;72540;62.834;27.606;2024-02-26T07:05:38;7.65;;;2.78;;
82797;SDS011;72540;62.834;27.606;2024-02-26T07:08:04;7.03;;;2.55;;
82797;SDS011;72540;62.834;27.606;2024-02-26T07:10:30;6.55;;;2.53;;
82797;SDS011;72540;62.834;27.606;2024-02-26T07:12:56;7.20;;;2.53;;
82797;SDS011;72540;62.834;27.606;2024-02-26T07:15:21;9.55;;;2.45;;
82797;SDS011;72540;62.834;27.606;2024-02-26T07:17:47;7.85;;;2.70;;
82797;SDS011;72540;62.834;27.606;2024-02-26T07:20:14;7.68;;;3.00;;
82797;SDS011;72540;62.834;27.606;2024-02-26T07:22:40;11.27;;;3.03;;
82797;SDS011;72540;62.834;27.606;2024-02-26T07:25:07;8.30;;;2.63;;
82797;SDS011;72540;62.834;27.606;2024-02-26T07:27:34;7.88;;;3.25;;
82797;SDS011;72540;62.834;27.606;2024-02-26T07:30:00;7.88;;;2.60;;
82797;SDS011;72540;62.834;27.606;2024-02-26T07:32:26;8.20;;;3.22;;
82797;SDS011;72540;62.834;27.606;2024-02-26T07:34:51;9.15;;;3.58;;
82797;SDS011;72540;62.834;27.606;2024-02-26T07:37:17;8.02;;;2.63;;
82797;SDS011;72540;62.834;27.606;2024-02-26T07:39:43;10.10;;;3.10;;
82797;SDS011;72540;62.834;27.606;2024-02-26T07:42:08;11.63;;;3.00;;
82797;SDS011;72540;62.834;27.606;2024-02-26T07:44:34;8.55;;;3.05;;
82797;SDS011;72540;62.834;27.606;2024-02-26T07:47:00;8.75;;;3.05;;
82797;SDS011;72540;62.834;27.606;2024-02-26T07:49:26;8.80;;;3.47;;
82797;SDS011;72540;62.834;27.606;2024-02-26T07:51:51;10.57;;;3.50;;
82797;SDS011;72540;62.834;27.606;2024-02-26T07:54:17;10.55;;;4.03;;
82797;SDS011;72540;62.834;27.606;2024-02-26T07:56:44;7.50;;;2.72;;
82797;SDS011;72540;62.834;27.606;2024-02-26T07:59:10;7.47;;;3.15;;
82797;SDS011;72540;62.834;27.606;2024-02-26T08:01:35;7.97;;;3.00;;
82797;SDS011;72540;62.834;27.606;2024-02-26T08:04:04;9.60;;;3.58;;
82797;SDS011;72540;62.834;27.606;2024-02-26T08:06:30;8.13;;;3.17;;
82797;SDS011;72540;62.834;27.606;2024-02-26T08:08:55;7.80;;;3.22;;
82797;SDS011;72540;62.834;27.606;2024-02-26T08:11:21;10.52;;;3.53;;
82797;SDS011;72540;62.834;27.606;2024-02-26T08:13:46;8.80;;;3.67;;
82797;SDS011;72540;62.834;27.606;2024-02-26T08:16:12;8.60;;;3.40;;
82797;SDS011;72540;62.834;27.606;2024-02-26T08:18:38;12.18;;;4.18;;
82797;SDS011;72540;62.834;27.606;2024-02-26T08:21:04;11.23;;;4.00;;
82797;SDS011;72540;62.834;27.606;2024-02-26T08:23:29;11.50;;;4.00;;
82797;SDS011;72540;62.834;27.606;2024-02-26T08:25:56;10.07;;;3.67;;
82797;SDS011;72540;62.834;27.606;2024-02-26T08:28:22;13.27;;;3.78;;
82797;SDS011;72540;62.834;27.606;2024-02-26T08:30:48;13.50;;;4.20;;
82797;SDS011;72540;62.834;27.606;2024-02-26T08:33:14;9.52;;;3.80;;
82797;SDS011;72540;62.834;27.606;2024-02-26T08:35:39;10.55;;;3.95;;
82797;SDS011;72540;62.834;27.606;2024-02-26T08:38:05;11.82;;;3.70;;
82797;SDS011;72540;62.834;27.606;2024-02-26T08:40:31;10.02;;;4.07;;
82797;SDS011;72540;62.834;27.606;2024-02-26T08:42:56;9.02;;;3.58;;
82797;SDS011;72540;62.834;27.606;2024-02-26T08:45:22;8.15;;;3.35;;
82797;SDS011;72540;62.834;27.606;2024-02-26T08:47:49;9.20;;;3.50;;
82797;SDS011;72540;62.834;27.606;2024-02-26T08:50:15;10.77;;;3.03;;
82797;SDS011;72540;62.834;27.606;2024-02-26T08:52:41;8.15;;;3.50;;
82797;SDS011;72540;62.834;27.606;2024-02-26T08:55:07;9.13;;;3.08;;
82797;SDS011;72540;62.834;27.606;2024-02-26T08:57:36;7.47;;;2.92;;
82797;SDS011;72540;62.834;27.606;2024-02-26T09:00:01;9.35;;;3.38;;
82797;SDS011;72540;62.834;27.606;2024-02-26T09:02:27;6.90;;;2.88;;
82797;SDS011;72540;62.834;27.606;2024-02-26T09:04:52;10.75;;;3.75;;
82797;SDS011;72540;62.834;27.606;2024-02-26T09:07:20;10.73;;;2.80;;
82797;SDS011;72540;62.834;27.606;2024-02-26T09:09:46;7.25;;;2.60;;
82797;SDS011;72540;62.834;27.606;2024-02-26T09:12:12;8.23;;;2.85;;
82797;SDS011;72540;62.834;27.606;2024-02-26T09:14:37;10.23;;;3.28;;
82797;SDS011;72540;62.834;27.606;2024-02-26T09:17:03;8.65;;;3.28;;
82797;SDS011;72540;62.834;27.606;2024-02-26T09:19:28;8.27;;;3.42;;
82797;SDS011;72540;62.834;27.606;2024-02-26T09:21:54;8.93;;;3.47;;
82797;SDS011;72540;62.834;27.606;2024-02-26T09:24:23;7.25;;;3.10;;
82797;SDS011;72540;62.834;27.606;2024-02-26T09:26:49;11.20;;;3.58;;
82797;SDS011;72540;62.834;27.606;2024-02-26T09:29:15;9.50;;;3.65;;
82797;SDS011;72540;62.834;27.606;2024-02-26T09:31:40;9.98;;;4.03;;
82797;SDS011;72540;62.834;27.606;2024-02-26T09:34:06;8.70;;;3.50;;
82797;SDS011;72540;62.834;27.606;2024-02-26T09:36:33;7.53;;;3.22;;
82797;SDS011;72540;62.834;27.606;2024-02-26T09:38:59;7.93;;;3.03;;
82797;SDS011;72540;62.834;27.606;2024-02-26T09:41:25;8.88;;;3.25;;
82797;SDS011;72540;62.834;27.606;2024-02-26T09:43:53;9.57;;;3.42;;
82797;SDS011;72540;62.834;27.606;2024-02-26T09:48:52;13.98;;;3.15;;
82797;SDS011;72540;62.834;27.606;2024-02-26T09:51:18;12.85;;;3.58;;
82797;SDS011;72540;62.834;27.606;2024-02-26T09:53:44;12.23;;;3.60;;
82797;SDS011;72540;62.834;27.606;2024-02-26T09:56:12;8.63;;;3.50;;
82797;SDS011;72540;62.834;27.606;2024-02-26T09:58:38;9.70;;;3.63;;
82797;SDS011;72540;62.834;27.606;2024-02-26T10:01:04;8.20;;;3.30;;
82797;SDS011;72540;62.834;27.606;2024-02-26T10:03:39;9.48;;;2.97;;
82797;SDS011;72540;62.834;27.606;2024-02-26T10:06:07;8.10;;;2.88;;
82797;SDS011;72540;62.834;27.606;2024-02-26T10:08:33;8.57;;;3.22;;
82797;SDS011;72540;62.834;27.606;2024-02-26T10:11:00;8.07;;;3.20;;
82797;SDS011;72540;62.834;27.606;2024-02-26T10:13:26;11.88;;;3.92;;
82797;SDS011;72540;62.834;27.606;2024-02-26T10:15:52;13.73;;;3.35;;
82797;SDS011;72540;62.834;27.606;2024-02-26T10:18:18;10.38;;;4.07;;
82797;SDS011;72540;62.834;27.606;2024-02-26T10:21:05;7.75;;;2.78;;
82797;SDS011;72540;62.834;27.606;2024-02-26T10:23:30;8.18;;;2.92;;
82797;SDS011;72540;62.834;27.606;2024-02-26T10:25:55;10.20;;;3.70;;
82797;SDS011;72540;62.834;27.606;2024-02-26T10:28:21;9.10;;;3.17;;
82797;SDS011;72540;62.834;27.606;2024-02-26T10:30:47;10.15;;;3.88;;
82797;SDS011;72540;62.834;27.606;2024-02-26T10:33:13;9.85;;;3.60;;
82797;SDS011;72540;62.834;27.606;2024-02-26T10:35:39;8.15;;;3.10;;
82797;SDS011;72540;62.834;27.606;2024-02-26T10:38:10;10.55;;;4.13;;
82797;SDS011;72540;62.834;27.606;2024-02-26T10:40:36;17.17;;;6.93;;
82797;SDS011;72540;62.834;27.606;2024-02-26T10:43:02;60.17;;;23.65;;
82797;SDS011;72540;62.834;27.606;2024-02-26T10:45:28;36.83;;;15.73;;
82797;SDS011;72540;62.834;27.606;2024-02-26T10:47:54;18.33;;;9.43;;
82797;SDS011;72540;62.834;27.606;2024-02-26T10:50:19;8.70;;;3.47;;
82797;SDS011;72540;62.834;27.606;2024-02-26T10:52:45;9.52;;;4.15;;
82797;SDS011;72540;62.834;27.606;2024-02-26T10:55:15;23.40;;;12.10;;
82797;SDS011;72540;62.834;27.606;2024-02-26T10:57:44;10.13;;;5.55;;
82797;SDS011;72540;62.834;27.606;2024-02-26T11:00:10;12.15;;;7.00;;
82797;SDS011;72540;62.834;27.606;2024-02-26T11:02:39;9.88;;;5.93;;
82797;SDS011;72540;62.834;27.606;2024-02-26T11:05:05;10.50;;;5.38;;
82797;SDS011;72540;62.834;27.606;2024-02-26T11:07:32;14.20;;;6.80;;
82797;SDS011;72540;62.834;27.606;2024-02-26T11:10:00;7.97;;;3.40;;
82797;SDS011;72540;62.834;27.606;2024-02-26T11:12:28;9.02;;;3.20;;
82797;SDS011;72540;62.834;27.606;2024-02-26T11:14:54;12.23;;;3.58;;
82797;SDS011;72540;62.834;27.606;2024-02-26T11:17:26;9.45;;;3.78;;
82797;SDS011;72540;62.834;27.606;2024-02-26T11:19:55;14.38;;;3.95;;
82797;SDS011;72540;62.834;27.606;2024-02-26T11:22:21;9.88;;;4.25;;
82797;SDS011;72540;62.834;27.606;2024-02-26T11:24:51;10.70;;;3.55;;
82797;SDS011;72540;62.834;27.606;2024-02-26T11:27:17;8.80;;;2.97;;
82797;SDS011;72540;62.834;27.606;2024-02-26T11:29:46;7.82;;;3.00;;
82797;SDS011;72540;62.834;27.606;2024-02-26T11:32:13;9.75;;;3.22;;
82797;SDS011;72540;62.834;27.606;2024-02-26T11:34:39;9.00;;;3.42;;
82797;SDS011;72540;62.834;27.606;2024-02-26T11:37:09;8.20;;;3.25;;
82797;SDS011;72540;62.834;27.606;2024-02-26T11:39:35;9.73;;;3.10;;
82797;SDS011;72540;62.834;27.606;2024-02-26T11:42:05;9.63;;;3.40;;
82797;SDS011;72540;62.834;27.606;2024-02-26T11:44:31;7.43;;;2.90;;
82797;SDS011;72540;62.834;27.606;2024-02-26T11:46:57;10.25;;;3.42;;
82797;SDS011;72540;62.834;27.606;2024-02-26T11:51:56;10.77;;;4.13;;
82797;SDS011;72540;62.834;27.606;2024-02-26T11:57:03;8.35;;;3.35;;
82797;SDS011;72540;62.834;27.606;2024-02-26T11:59:38;8.65;;;3.42;;
82797;SDS011;72540;62.834;27.606;2024-02-26T12:02:06;9.95;;;3.70;;
82797;SDS011;72540;62.834;27.606;2024-02-26T12:04:32;11.32;;;3.40;;
82797;SDS011;72540;62.834;27.606;2024-02-26T12:07:00;10.45;;;4.22;;
82797;SDS011;72540;62.834;27.606;2024-02-26T12:09:33;10.38;;;3.83;;
82797;SDS011;72540;62.834;27.606;2024-02-26T12:12:09;7.53;;;2.92;;
82797;SDS011;72540;62.834;27.606;2024-02-26T12:14:39;7.90;;;3.30;;
82797;SDS011;72540;62.834;27.606;2024-02-26T12:17:18;9.30;;;3.75;;
82797;SDS011;72540;62.834;27.606;2024-02-26T12:19:45;9.45;;;3.30;;
82797;SDS011;72540;62.834;27.606;2024-02-26T12:22:12;8.35;;;3.90;;
82797;SDS011;72540;62.834;27.606;2024-02-26T12:24:38;6.65;;;2.75;;
82797;SDS011;72540;62.834;27.606;2024-02-26T12:27:04;9.80;;;3.45;;
82797;SDS011;72540;62.834;27.606;2024-02-26T12:29:29;8.98;;;3.13;;
82797;SDS011;72540;62.834;27.606;2024-02-26T12:31:55;7.80;;;3.30;;
82797;SDS011;72540;62.834;27.606;2024-02-26T12:34:21;8.93;;;3.28;;
82797;SDS011;72540;62.834;27.606;2024-02-26T12:36:47;8.30;;;2.97;;
82797;SDS011;72540;62.834;27.606;2024-02-26T12:39:13;8.68;;;3.50;;
82797;SDS011;72540;62.834;27.606;2024-02-26T12:41:40;9.23;;;3.22;;
82797;SDS011;72540;62.834;27.606;2024-02-26T12:44:07;12.18;;;3.60;;
82797;SDS011;72540;62.834;27.606;2024-02-26T12:46:33;7.65;;;2.83;;
82797;SDS011;72540;62.834;27.606;2024-02-26T12:48:58;8.68;;;3.13;;
82797;SDS011;72540;62.834;27.606;2024-02-26T12:51:27;7.57;;;3.03;;
82797;SDS011;72540;62.834;27.606;2024-02-26T12:53:54;7.93;;;3.30;;
82797;SDS011;72540;62.834;27.606;2024-02-26T12:56:21;10.88;;;3.05;;
82797;SDS011;72540;62.834;27.606;2024-02-26T12:58:47;10.45;;;2.63;;
82797;SDS011;72540;62.834;27.606;2024-02-26T13:01:14;7.82;;;3.20;;
82797;SDS011;72540;62.834;27.606;2024-02-26T13:03:41;8.68;;;3.08;;
82797;SDS011;72540;62.834;27.606;2024-02-26T13:06:06;8.35;;;2.97;;
82797;SDS011;72540;62.834;27.606;2024-02-26T13:08:32;10.25;;;3.25;;
82797;SDS011;72540;62.834;27.606;2024-02-26T13:11:01;7.10;;;3.42;;
82797;SDS011;72540;62.834;27.606;2024-02-26T13:13:27;8.05;;;2.72;;
82797;SDS011;72540;62.834;27.606;2024-02-26T13:16:05;7.35;;;3.03;;
82797;SDS011;72540;62.834;27.606;2024-02-26T13:18:33;8.18;;;2.53;;
82797;SDS011;72540;62.834;27.606;2024-02-26T13:21:06;7.70;;;3.00;;
82797;SDS011;72540;62.834;27.606;2024-02-26T13:23:34;8.13;;;2.70;;
82797;SDS011;72540;62.834;27.606;2024-02-26T13:25:59;6.15;;;2.35;;
82797;SDS011;72540;62.834;27.606;2024-02-26T13:28:25;6.95;;;2.58;;
82797;SDS011;72540;62.834;27.606;2024-02-26T13:30:56;9.38;;;2.78;;
82797;SDS011;72540;62.834;27.606;2024-02-26T13:33:23;7.60;;;2.30;;
82797;SDS011;72540;62.834;27.606;2024-02-26T13:35:49;8.02;;;2.92;;
82797;SDS011;72540;62.834;27.606;2024-02-26T13:38:15;6.57;;;2.45;;
82797;SDS011;72540;62.834;27.606;2024-02-26T13:40:41;7.70;;;2.30;;
82797;SDS011;72540;62.834;27.606;2024-02-26T13:43:06;5.47;;;2.20;;
82797;SDS011;72540;62.834;27.606;2024-02-26T13:45:36;7.07;;;2.42;;
82797;SDS011;72540;62.834;27.606;2024-02-26T13:48:10;5.93;;;1.95;;
82797;SDS011;72540;62.834;27.606;2024-02-26T13:50:36;7.72;;;2.20;;
82797;SDS011;72540;62.834;27.606;2024-02-26T13:53:02;8.98;;;2.33;;
82797;SDS011;72540;62.834;27.606;2024-02-26T13:55:30;5.60;;;1.83;;
82797;SDS011;72540;62.834;27.606;2024-02-26T13:57:57;7.45;;;2.40;;
82797;SDS011;72540;62.834;27.606;2024-02-26T14:00:23;7.55;;;2.53;;
82797;SDS011;72540;62.834;27.606;2024-02-26T14:02:50;7.43;;;2.85;;
82797;SDS011;72540;62.834;27.606;2024-02-26T14:05:15;9.68;;;3.55;;
82797;SDS011;72540;62.834;27.606;2024-02-26T14:07:41;6.97;;;2.72;;
82797;SDS011;72540;62.834;27.606;2024-02-26T14:10:07;6.45;;;2.42;;
82797;SDS011;72540;62.834;27.606;2024-02-26T14:12:35;9.07;;;2.55;;
82797;SDS011;72540;62.834;27.606;2024-02-26T14:15:00;9.65;;;4.03;;
82797;SDS011;72540;62.834;27.606;2024-02-26T14:17:29;9.27;;;3.65;;
82797;SDS011;72540;62.834;27.606;2024-02-26T14:19:55;9.07;;;3.70;;
82797;SDS011;72540;62.834;27.606;2024-02-26T14:22:20;7.85;;;3.28;;
82797;SDS011;72540;62.834;27.606;2024-02-26T14:24:46;6.45;;;2.63;;
82797;SDS011;72540;62.834;27.606;2024-02-26T14:27:12;6.60;;;2.88;;
82797;SDS011;72540;62.834;27.606;2024-02-26T14:29:41;7.45;;;3.63;;
82797;SDS011;72540;62.834;27.606;2024-02-26T14:32:08;8.30;;;3.20;;
82797;SDS011;72540;62.834;27.606;2024-02-26T14:34:34;6.80;;;2.70;;